Time;durP1;ratioP1;P1;durP2;ratioP2;P2;SDS_P1;SDS_P2;PMS_P1;PMS_P2;Temp;Humidity;BMP_temperature;BMP_pressure;BME280_temperature;BME280_humidity;BME280_pressure;Samples;Min_cycle;Max_cycle;Signal;HPM_P1;HPM_P2
2023/11/21 00:00:14;;;;;;;7.07;4.25;;;;;;;-6.11;54.11;99348.03;5033866;28;20036;-54
2023/11/21 00:02:41;;;;;;;10.75;5.20;;;;;;;-6.14;53.61;99343.75;5035636;28;20037;-57
2023/11/21 00:05:09;;;;;;;7.47;4.55;;;;;;;-6.42;53.72;99293.94;5033223;28;20392;-57
2023/11/21 00:07:36;;;;;;;9.10;4.40;;;;;;;-6.14;53.78;99340.28;5033948;28;20033;-58
2023/11/21 00:10:05;;;;;;;7.13;4.00;;;;;;;-6.13;54.15;99344.59;5032604;28;20033;-55
2023/11/21 00:12:31;;;;;;;7.00;4.20;;;;;;;-6.13;53.61;99344.59;5033021;28;20060;-55
2023/11/21 00:14:57;;;;;;;8.32;4.65;;;;;;;-6.20;53.99;99342.13;5033346;28;20421;-57
2023/11/21 00:17:24;;;;;;;6.70;4.32;;;;;;;-6.34;54.19;99344.13;5036827;28;20432;-55
2023/11/21 00:19:52;;;;;;;9.02;4.60;;;;;;;-6.41;54.43;99340.78;5033543;28;20029;-57
2023/11/21 00:22:18;;;;;;;8.07;4.65;;;;;;;-6.72;54.58;99301.44;5038299;28;20106;-55
2023/11/21 00:24:44;;;;;;;16.20;5.07;;;;;;;-6.37;54.50;99341.59;5053408;28;20091;-58
2023/11/21 00:27:09;;;;;;;13.05;5.22;;;;;;;-6.38;54.19;99343.34;5040188;28;20049;-56
2023/11/21 00:29:35;;;;;;;8.85;4.60;;;;;;;-6.36;54.00;99322.47;5033157;28;20033;-57
2023/11/21 00:32:01;;;;;;;9.70;4.47;;;;;;;-6.26;53.82;99339.66;5034428;28;20021;-54
2023/11/21 00:34:27;;;;;;;7.00;4.47;;;;;;;-6.30;54.03;99337.13;5033027;28;20191;-58
2023/11/21 00:36:53;;;;;;;7.75;4.35;;;;;;;-6.31;53.71;99331.03;5040624;28;20032;-57
2023/11/21 00:39:18;;;;;;;7.75;4.45;;;;;;;-6.24;54.04;99348.28;5053152;28;20029;-56
2023/11/21 00:41:48;;;;;;;9.50;4.70;;;;;;;-6.27;53.97;99340.53;5051942;28;20353;-55
2023/11/21 00:44:13;;;;;;;7.15;4.25;;;;;;;-6.24;54.06;99339.59;5052816;28;20021;-59
2023/11/21 00:46:39;;;;;;;8.80;4.60;;;;;;;-6.23;54.12;99338.72;5050337;28;20347;-57
2023/11/21 00:49:05;;;;;;;7.18;4.40;;;;;;;-6.22;54.16;99335.22;5041198;28;20048;-59
2023/11/21 00:51:30;;;;;;;7.05;4.53;;;;;;;-6.31;54.10;99336.25;5032135;28;20052;-54
2023/11/21 00:53:56;;;;;;;7.20;4.45;;;;;;;-6.30;53.89;99331.91;5033127;28;20115;-54
2023/11/21 00:56:22;;;;;;;8.65;4.88;;;;;;;-6.26;54.17;99326.63;5032857;28;20111;-56
2023/11/21 00:58:49;;;;;;;7.25;4.13;;;;;;;-6.23;54.22;99336.97;5032618;28;20101;-55
2023/11/21 01:01:16;;;;;;;6.75;4.07;;;;;;;-6.22;53.77;99328.28;5037600;28;20055;-55
2023/11/21 01:03:42;;;;;;;9.63;4.65;;;;;;;-6.24;54.07;99334.38;5052875;28;20102;-53
2023/11/21 01:06:08;;;;;;;8.75;4.40;;;;;;;-6.27;54.26;99329.25;5052461;28;20444;-57
2023/11/21 01:08:35;;;;;;;7.43;4.28;;;;;;;-6.22;53.95;99338.69;5052522;28;20550;-52
2023/11/21 01:11:01;;;;;;;6.80;4.07;;;;;;;-6.21;54.01;99336.94;5051650;28;20025;-55
2023/11/21 01:13:29;;;;;;;7.50;4.40;;;;;;;-6.27;53.74;99321.44;5049740;28;20032;-58
2023/11/21 01:15:56;;;;;;;8.48;4.72;;;;;;;-6.28;53.98;99330.13;5032220;28;20119;-57
2023/11/21 01:18:25;;;;;;;7.78;4.13;;;;;;;-6.44;53.82;99308.75;5033317;28;20056;-56
2023/11/21 01:20:52;;;;;;;7.90;4.22;;;;;;;-6.61;53.79;99270.00;5032706;28;20041;-59
2023/11/21 01:23:18;;;;;;;6.70;3.90;;;;;;;-6.21;53.71;99334.31;5031836;28;20037;-57
2023/11/21 01:25:44;;;;;;;7.80;4.30;;;;;;;-6.21;53.59;99327.38;5031294;28;20045;-55
2023/11/21 01:28:09;;;;;;;8.43;4.57;;;;;;;-6.22;53.70;99330.88;5032245;28;20033;-56
2023/11/21 01:30:35;;;;;;;7.20;4.53;;;;;;;-6.18;53.94;99323.84;5032856;28;20025;-56
2023/11/21 01:33:01;;;;;;;10.95;4.57;;;;;;;-6.20;53.40;99326.50;5033801;28;20030;-57
2023/11/21 01:35:26;;;;;;;8.57;4.35;;;;;;;-6.23;53.81;99326.56;5032138;28;20038;-57
2023/11/21 01:37:53;;;;;;;7.25;4.55;;;;;;;-6.30;53.88;99335.38;5032156;28;20420;-57
2023/11/21 01:40:18;;;;;;;8.38;4.75;;;;;;;-6.37;53.87;99332.03;5031971;28;20470;-58
2023/11/21 01:42:44;;;;;;;10.30;4.72;;;;;;;-6.42;54.05;99323.44;5048089;28;20025;-56
2023/11/21 01:45:12;;;;;;;8.25;4.63;;;;;;;-6.70;53.80;99286.66;5051454;28;20037;-56
2023/11/21 01:47:39;;;;;;;9.48;4.00;;;;;;;-6.43;53.46;99334.75;5043206;28;20033;-58
2023/11/21 01:50:06;;;;;;;8.73;4.00;;;;;;;-6.43;53.62;99334.75;5032444;28;20041;-58
2023/11/21 01:52:35;;;;;;;10.23;4.20;;;;;;;-6.42;53.55;99346.03;5032623;28;20068;-56
2023/11/21 01:55:00;;;;;;;6.68;4.05;;;;;;;-6.57;53.67;99318.53;5032177;28;20041;-52
2023/11/21 01:57:26;;;;;;;7.57;3.50;;;;;;;-6.44;53.83;99338.22;5031057;28;20095;-57
2023/11/21 01:59:54;;;;;;;7.78;4.13;;;;;;;-6.44;53.52;99330.41;5041133;28;20017;-56
2023/11/21 02:02:20;;;;;;;6.38;3.72;;;;;;;-6.44;53.58;99337.41;5050388;28;20021;-56
2023/11/21 02:04:46;;;;;;;7.32;4.10;;;;;;;-6.80;53.48;99279.00;5050946;28;20041;-58
2023/11/21 02:07:11;;;;;;;10.63;3.83;;;;;;;-6.51;53.46;99334.91;5051106;28;20359;-55
2023/11/21 02:09:42;;;;;;;6.70;3.58;;;;;;;-6.52;53.15;99330.56;5052152;28;20039;-57
2023/11/21 02:12:10;;;;;;;5.97;3.53;;;;;;;-6.45;53.36;99335.69;5051956;28;20037;-58
2023/11/21 02:14:36;;;;;;;6.30;3.67;;;;;;;-6.37;53.13;99338.97;5052187;28;20060;-56
2023/11/21 02:17:03;;;;;;;5.75;3.72;;;;;;;-6.37;52.72;99323.34;5049973;28;20025;-57
2023/11/21 02:19:30;;;;;;;6.38;3.47;;;;;;;-6.31;52.62;99338.84;5051697;28;20033;-58
2023/11/21 02:22:16;;;;;;;6.90;3.80;;;;;;;-6.17;52.17;99338.59;5050963;28;20037;-56
2023/11/21 02:24:42;;;;;;;6.32;3.78;;;;;;;-6.20;52.62;99336.91;5051422;28;20359;-57
2023/11/21 02:27:08;;;;;;;8.50;3.90;;;;;;;-6.21;52.04;99339.53;5052137;28;20186;-52
2023/11/21 02:29:34;;;;;;;7.38;3.85;;;;;;;-6.23;52.48;99341.31;5051629;28;20041;-51
2023/11/21 02:31:59;;;;;;;8.48;4.10;;;;;;;-6.25;52.10;99351.78;5049669;28;20424;-50
2023/11/21 02:34:25;;;;;;;6.13;3.60;;;;;;;-6.24;52.11;99340.47;5051493;28;20056;-58
2023/11/21 02:36:51;;;;;;;6.05;3.85;;;;;;;-6.59;51.85;99292.50;5054689;28;20120;-53
2023/11/21 02:39:17;;;;;;;5.50;3.33;;;;;;;-6.29;52.15;99350.09;5055315;28;20037;-52
2023/11/21 02:41:44;;;;;;;10.48;3.63;;;;;;;-6.30;51.76;99339.72;5054585;28;20033;-54
2023/11/21 02:44:10;;;;;;;8.55;3.70;;;;;;;-6.35;51.62;99339.81;5054577;28;20039;-58
2023/11/21 02:46:37;;;;;;;7.47;3.65;;;;;;;-6.55;51.59;99322.81;5055078;28;20108;-57
2023/11/21 02:49:03;;;;;;;6.30;3.60;;;;;;;-6.46;51.43;99350.44;5055260;28;20079;-52
2023/11/21 02:51:30;;;;;;;8.73;3.50;;;;;;;-6.57;51.12;99353.22;5041951;28;20034;-57
2023/11/21 02:54:00;;;;;;;9.10;3.78;;;;;;;-6.56;51.48;99354.94;5035007;28;20033;-57
2023/11/21 02:56:26;;;;;;;8.25;3.35;;;;;;;-6.58;51.59;99351.50;5045314;28;20043;-55
2023/11/21 02:58:55;;;;;;;9.82;3.00;;;;;;;-6.65;51.34;99360.34;5055130;28;20040;-55
2023/11/21 03:01:21;;;;;;;4.75;3.17;;;;;;;-6.63;51.72;99361.16;5054666;28;20098;-57
2023/11/21 03:03:47;;;;;;;7.72;3.60;;;;;;;-7.17;51.52;99281.41;5054581;28;20435;-54
2023/11/21 03:06:13;;;;;;;6.03;3.28;;;;;;;-6.67;52.05;99360.34;5048903;28;20028;-58
2023/11/21 03:08:39;;;;;;;7.68;3.40;;;;;;;-6.64;51.60;99362.06;5055354;28;20048;-51
2023/11/21 03:11:04;;;;;;;9.00;3.50;;;;;;;-6.95;51.61;99320.94;5053014;28;20029;-57
2023/11/21 03:13:30;;;;;;;8.25;3.15;;;;;;;-6.69;51.39;99369.09;5036365;28;20033;-58
2023/11/21 03:15:55;;;;;;;7.75;3.75;;;;;;;-6.74;51.97;99365.72;5035566;28;20033;-59
2023/11/21 03:18:24;;;;;;;10.23;3.80;;;;;;;-6.73;51.76;99376.09;5034992;28;20033;-57
2023/11/21 03:20:52;;;;;;;4.60;3.00;;;;;;;-6.73;51.70;99367.44;5034550;28;20029;-57
2023/11/21 03:23:18;;;;;;;6.22;3.47;;;;;;;-6.76;51.94;99368.34;5050426;28;20082;-52
2023/11/21 03:25:43;;;;;;;7.53;4.10;;;;;;;-6.74;52.08;99376.13;5054755;28;20053;-52
2023/11/21 03:28:10;;;;;;;8.35;3.60;;;;;;;-6.67;52.09;99368.16;5053984;28;20388;-53
2023/11/21 03:30:36;;;;;;;8.25;3.83;;;;;;;-6.62;52.34;99365.47;5052720;28;20451;-56
2023/11/21 03:33:02;;;;;;;6.90;3.05;;;;;;;-6.73;52.02;99354.41;5052343;28;20029;-54
2023/11/21 03:35:28;;;;;;;9.32;4.15;;;;;;;-6.77;51.98;99354.44;5051765;28;20029;-54
2023/11/21 03:37:54;;;;;;;8.32;3.90;;;;;;;-6.64;52.20;99372.47;5037793;28;20038;-55
2023/11/21 03:40:21;;;;;;;10.48;3.50;;;;;;;-6.74;52.25;99376.97;5034169;28;20034;-55
2023/11/21 03:42:47;;;;;;;7.75;3.53;;;;;;;-6.74;52.34;99381.34;5033993;28;20115;-57
2023/11/21 03:45:13;;;;;;;5.93;3.25;;;;;;;-7.08;52.23;99326.34;5033459;28;20425;-57
2023/11/21 03:47:43;;;;;;;12.05;3.30;;;;;;;-6.55;51.99;99382.72;5034164;28;20360;-56
2023/11/21 03:50:09;;;;;;;6.35;3.00;;;;;;;-6.54;52.62;99387.03;5034187;28;20037;-60
2023/11/21 03:52:35;;;;;;;7.55;3.63;;;;;;;-6.44;52.37;99389.50;5033896;28;20037;-57
2023/11/21 03:55:02;;;;;;;8.65;3.42;;;;;;;-6.45;52.08;99388.63;5048672;28;20029;-58
2023/11/21 03:57:29;;;;;;;4.88;3.28;;;;;;;-6.46;52.00;99376.47;5053475;28;20059;-54
2023/11/21 03:59:54;;;;;;;6.55;3.53;;;;;;;-6.48;52.21;99378.25;5036587;28;20516;-59
2023/11/21 04:02:20;;;;;;;6.05;3.70;;;;;;;-6.52;52.41;99382.66;5033590;28;20475;-59
2023/11/21 04:04:46;;;;;;;5.60;3.17;;;;;;;-6.55;52.62;99387.91;5033171;28;20191;-56
2023/11/21 04:07:13;;;;;;;5.57;3.25;;;;;;;-6.55;52.31;99382.72;5033395;28;20044;-57
2023/11/21 04:09:41;;;;;;;6.35;3.28;;;;;;;-6.53;52.68;99391.34;5034473;28;20047;-56
2023/11/21 04:12:08;;;;;;;7.32;3.65;;;;;;;-6.45;52.47;99383.41;5050204;28;20232;-56
2023/11/21 04:14:34;;;;;;;9.57;3.80;;;;;;;-6.44;52.53;99390.34;5053221;28;20068;-58
2023/11/21 04:17:00;;;;;;;9.05;3.72;;;;;;;-6.57;52.80;99379.28;5053443;28;20420;-57
2023/11/21 04:19:25;;;;;;;7.18;3.55;;;;;;;-6.59;52.84;99386.25;5027753;28;20221;-57
2023/11/21 04:21:51;;;;;;;6.80;3.60;;;;;;;-6.68;53.11;99391.63;5033906;28;20025;-59
2023/11/21 04:24:17;;;;;;;10.93;3.50;;;;;;;-6.72;53.18;99387.38;5052686;28;20056;-58
2023/11/21 04:26:44;;;;;;;6.35;3.38;;;;;;;-6.66;53.30;99384.66;5052649;28;20498;-59
2023/11/21 04:29:10;;;;;;;7.82;3.65;;;;;;;-6.58;53.10;99393.19;5053204;28;20064;-56
2023/11/21 04:31:35;;;;;;;6.32;3.40;;;;;;;-6.53;52.94;99387.91;5053101;28;20225;-57
2023/11/21 04:34:01;;;;;;;7.95;3.97;;;;;;;-6.50;53.31;99387.84;5052869;28;20032;-55
2023/11/21 04:36:26;;;;;;;8.48;3.90;;;;;;;-6.55;52.65;99384.47;5035293;28;20094;-53
2023/11/21 04:38:52;;;;;;;7.38;3.65;;;;;;;-6.81;53.26;99339.75;5036811;28;20347;-57
2023/11/21 04:41:17;;;;;;;7.72;4.15;;;;;;;-6.44;53.14;99398.16;5034256;28;20026;-57
2023/11/21 04:43:43;;;;;;;7.18;4.22;;;;;;;-6.42;52.95;99414.59;5032921;28;20029;-56
2023/11/21 04:46:09;;;;;;;10.55;3.75;;;;;;;-6.41;52.82;99413.72;5033084;28;20060;-58
2023/11/21 04:48:34;;;;;;;8.95;4.13;;;;;;;-6.46;53.16;99412.09;5031711;28;20041;-58
2023/11/21 04:51:00;;;;;;;7.10;3.97;;;;;;;-6.47;53.02;99415.59;5033483;28;20040;-57
2023/11/21 04:53:26;;;;;;;6.10;3.58;;;;;;;-6.57;53.41;99397.50;5048947;28;20450;-56
2023/11/21 04:55:51;;;;;;;8.35;3.70;;;;;;;-6.50;53.30;99421.69;5050904;28;20033;-56
2023/11/21 04:58:17;;;;;;;7.93;3.75;;;;;;;-6.80;53.49;99366.66;5052079;28;20037;-57
2023/11/21 05:00:43;;;;;;;14.63;3.88;;;;;;;-6.51;53.46;99425.19;5052347;28;20020;-56
2023/11/21 05:03:09;;;;;;;8.23;3.47;;;;;;;-6.56;53.25;99409.63;5051007;28;20024;-59
2023/11/21 05:05:35;;;;;;;7.70;4.10;;;;;;;-6.51;53.54;99425.19;5033575;28;20460;-58
2023/11/21 05:08:01;;;;;;;5.93;3.85;;;;;;;-6.66;53.28;99401.13;5032329;28;20029;-60
2023/11/21 05:10:27;;;;;;;13.68;4.22;;;;;;;-6.49;53.22;99428.63;5032474;28;20460;-57
2023/11/21 05:12:53;;;;;;;9.90;4.50;;;;;;;-6.39;53.33;99431.94;5044663;28;20025;-56
2023/11/21 05:15:18;;;;;;;9.70;3.90;;;;;;;-6.38;52.93;99425.84;5052337;28;20041;-57
2023/11/21 05:17:45;;;;;;;8.05;4.63;;;;;;;-6.40;53.32;99428.47;5052173;28;20040;-58
2023/11/21 05:20:17;;;;;;;11.45;4.50;;;;;;;-6.36;53.10;99439.69;5048702;28;20790;-57
2023/11/21 05:22:43;;;;;;;8.38;4.15;;;;;;;-6.41;53.21;99434.56;5032343;28;20087;-52
2023/11/21 05:25:10;;;;;;;11.77;4.10;;;;;;;-6.43;53.07;99427.69;5033527;28;20053;-54
2023/11/21 05:27:36;;;;;;;6.32;3.80;;;;;;;-6.42;53.35;99434.59;5051219;28;20171;-53
2023/11/21 05:30:05;;;;;;;8.43;4.32;;;;;;;-6.41;53.01;99429.34;5051882;28;20143;-54
2023/11/21 05:32:32;;;;;;;8.73;4.20;;;;;;;-6.49;53.27;99429.50;5051259;28;20047;-57
2023/11/21 05:34:59;;;;;;;7.68;3.85;;;;;;;-6.81;53.29;99368.41;5050290;28;20021;-58
2023/11/21 05:37:26;;;;;;;11.20;4.55;;;;;;;-6.83;53.41;99377.13;5051792;28;20055;-59
2023/11/21 05:39:56;;;;;;;8.32;4.00;;;;;;;-6.63;53.37;99421.06;5050714;28;20033;-59
2023/11/21 05:42:23;;;;;;;7.50;4.13;;;;;;;-6.64;53.39;99414.13;5052492;28;20028;-58
2023/11/21 05:44:48;;;;;;;6.82;3.53;;;;;;;-6.63;53.68;99411.50;5051511;28;20107;-57
2023/11/21 05:47:14;;;;;;;8.55;3.78;;;;;;;-6.56;53.61;99438.28;5050166;28;20124;-59
2023/11/21 05:49:40;;;;;;;6.07;3.42;;;;;;;-6.84;53.60;99376.25;5051564;28;20162;-56
2023/11/21 05:52:06;;;;;;;10.65;3.97;;;;;;;-6.56;53.79;99433.06;5051995;28;20055;-56
2023/11/21 05:54:32;;;;;;;5.72;3.88;;;;;;;-6.46;53.43;99432.94;5051890;28;20021;-54
2023/11/21 05:56:58;;;;;;;9.27;4.03;;;;;;;-6.38;53.27;99431.94;5050891;28;20029;-57
2023/11/21 05:59:23;;;;;;;9.73;4.47;;;;;;;-6.56;53.95;99391.41;5043136;28;20029;-58
2023/11/21 06:01:49;;;;;;;6.28;3.88;;;;;;;-6.25;53.10;99440.38;5033069;28;20029;-55
2023/11/21 06:04:15;;;;;;;12.30;4.55;;;;;;;-6.30;53.35;99429.16;5031877;28;20033;-57
2023/11/21 06:06:40;;;;;;;5.93;3.70;;;;;;;-6.24;53.64;99431.69;5031714;28;20376;-55
2023/11/21 06:09:08;;;;;;;7.35;4.07;;;;;;;-6.23;53.57;99435.13;5031855;28;20048;-58
2023/11/21 06:11:35;;;;;;;13.05;5.00;;;;;;;-6.13;53.50;99447.13;5035524;28;20029;-60
2023/11/21 06:14:00;;;;;;;9.57;4.18;;;;;;;-6.06;53.33;99443.50;5034366;28;20064;-60
2023/11/21 06:16:27;;;;;;;9.27;4.45;;;;;;;-6.06;53.90;99442.63;5042804;28;20083;-61
2023/11/21 06:18:53;;;;;;;12.57;4.93;;;;;;;-5.96;53.61;99458.91;5054624;28;20453;-56
2023/11/21 06:21:19;;;;;;;13.27;4.80;;;;;;;-5.93;53.44;99451.91;5038106;28;20044;-56
2023/11/21 06:23:44;;;;;;;12.45;4.53;;;;;;;-5.82;53.19;99456.03;5038880;28;20030;-56
2023/11/21 06:26:10;;;;;;;10.18;4.70;;;;;;;-5.86;53.28;99452.66;5035213;28;20144;-54
2023/11/21 06:28:36;;;;;;;7.90;4.47;;;;;;;-5.81;52.89;99436.91;5035257;28;20049;-56
2023/11/21 06:31:04;;;;;;;11.35;4.47;;;;;;;-5.74;53.33;99453.28;5041353;28;20021;-59
2023/11/21 06:33:34;;;;;;;12.25;5.00;;;;;;;-5.64;53.16;99449.63;5055355;28;20518;-59
2023/11/21 06:36:02;;;;;;;17.23;4.90;;;;;;;-5.57;53.39;99458.16;5055253;28;20042;-57
2023/11/21 06:38:29;;;;;;;13.80;5.20;;;;;;;-5.60;53.26;99439.97;5055262;28;20029;-58
2023/11/21 06:40:58;;;;;;;8.65;4.25;;;;;;;-5.58;52.68;99470.38;5055573;28;20048;-59
2023/11/21 06:43:24;;;;;;;10.02;4.05;;;;;;;-5.71;52.90;99448.00;5055248;28;20108;-55
2023/11/21 06:45:49;;;;;;;7.78;4.22;;;;;;;-5.98;53.23;99413.78;5047129;28;20105;-59
2023/11/21 06:48:15;;;;;;;6.65;4.15;;;;;;;-5.69;53.03;99472.31;5034045;28;20026;-55
2023/11/21 06:50:41;;;;;;;8.75;3.90;;;;;;;-5.75;53.10;99465.50;5036325;28;20383;-58
2023/11/21 06:53:08;;;;;;;7.85;3.72;;;;;;;-5.84;52.93;99463.03;5034484;28;20033;-59
2023/11/21 06:55:34;;;;;;;7.70;4.38;;;;;;;-5.90;52.91;99464.03;5034814;28;20041;-59
2023/11/21 06:58:00;;;;;;;6.55;3.83;;;;;;;-5.83;53.08;99464.75;5035060;28;20040;-58
2023/11/21 07:00:27;;;;;;;8.85;3.95;;;;;;;-5.83;52.59;99455.19;5035350;28;20036;-59
2023/11/21 07:02:54;;;;;;;9.30;3.92;;;;;;;-6.11;52.54;99413.19;5048262;28;20029;-58
2023/11/21 07:05:22;;;;;;;9.43;4.15;;;;;;;-5.90;52.69;99453.63;5052485;28;20029;-60
2023/11/21 07:07:49;;;;;;;8.85;4.18;;;;;;;-5.79;53.20;99458.59;5053261;28;20029;-57
2023/11/21 07:10:15;;;;;;;15.70;5.35;;;;;;;-5.67;53.12;99460.97;5051113;28;20028;-56
2023/11/21 07:12:40;;;;;;;9.70;4.68;;;;;;;-5.72;52.77;99457.59;5052657;28;20025;-57
2023/11/21 07:15:09;;;;;;;7.25;4.45;;;;;;;-5.67;52.80;99460.09;5054495;28;20037;-55
2023/11/21 07:17:35;;;;;;;11.93;4.50;;;;;;;-5.63;52.72;99467.84;5054908;28;20025;-58
2023/11/21 07:20:02;;;;;;;13.40;4.50;;;;;;;-5.56;52.46;99467.72;5053585;28;20037;-57
2023/11/21 07:22:30;;;;;;;8.77;4.28;;;;;;;-5.46;52.37;99469.25;5053133;28;20040;-59
2023/11/21 07:24:59;;;;;;;11.13;4.25;;;;;;;-5.38;52.36;99472.56;5054281;28;20037;-57
2023/11/21 07:27:25;;;;;;;9.07;4.10;;;;;;;-5.38;51.89;99471.72;5053010;28;20355;-54
2023/11/21 07:29:50;;;;;;;8.05;4.20;;;;;;;-5.34;51.71;99481.19;5036253;28;20079;-54
2023/11/21 07:32:16;;;;;;;10.88;3.58;;;;;;;-5.35;51.41;99471.66;5016779;28;20056;-58
2023/11/21 07:34:41;;;;;;;11.73;4.07;;;;;;;-5.37;51.78;99479.50;5039114;28;20043;-59
2023/11/21 07:37:11;;;;;;;10.35;5.35;;;;;;;-5.44;51.46;99475.28;5051644;28;20036;-57
2023/11/21 07:39:36;;;;;;;13.40;5.32;;;;;;;-5.45;52.02;99476.19;5052515;28;20482;-54
2023/11/21 07:42:02;;;;;;;11.52;4.68;;;;;;;-5.44;51.58;99477.91;5052196;28;20034;-59
2023/11/21 07:44:28;;;;;;;11.73;5.18;;;;;;;-5.52;51.38;99482.44;5053197;28;20080;-59
2023/11/21 07:46:57;;;;;;;8.50;4.55;;;;;;;-5.56;52.05;99468.59;5054443;28;20021;-57
2023/11/21 07:49:24;;;;;;;15.05;3.75;;;;;;;-5.52;51.57;99474.59;5052996;28;20122;-54
2023/11/21 07:51:50;;;;;;;7.18;3.78;;;;;;;-5.50;51.60;99473.66;5037712;28;20041;-58
2023/11/21 07:54:16;;;;;;;6.93;3.72;;;;;;;-5.47;51.40;99477.97;5042118;28;20368;-56
2023/11/21 07:56:42;;;;;;;6.18;3.80;;;;;;;-5.44;50.59;99472.69;5032206;28;20029;-56
2023/11/21 07:59:08;;;;;;;7.93;3.33;;;;;;;-5.35;51.15;99456.81;5049061;28;20124;-58
2023/11/21 08:01:34;;;;;;;8.02;3.83;;;;;;;-5.13;51.03;99461.59;5053259;28;20037;-58
2023/11/21 08:04:03;;;;;;;8.45;4.50;;;;;;;-4.96;50.72;99468.19;5053228;28;20108;-58
2023/11/21 08:06:30;;;;;;;14.30;4.28;;;;;;;-4.80;50.61;99468.69;5053646;28;20033;-59
2023/11/21 08:08:56;;;;;;;10.88;4.30;;;;;;;-5.07;50.24;99413.59;5038207;28;20091;-58
2023/11/21 08:11:22;;;;;;;11.02;4.00;;;;;;;-4.92;49.94;99428.06;5033143;28;20483;-57
2023/11/21 08:13:48;;;;;;;7.95;3.97;;;;;;;-4.64;49.66;99458.72;5032437;28;20025;-57
2023/11/21 08:16:14;;;;;;;12.82;4.55;;;;;;;-4.71;49.90;99449.34;5031922;28;20030;-57
2023/11/21 08:18:41;;;;;;;9.82;4.15;;;;;;;-4.76;49.87;99460.75;5032685;28;20029;-59
2023/11/21 08:21:07;;;;;;;8.25;4.43;;;;;;;-4.83;50.40;99459.16;5033069;28;20095;-58
2023/11/21 08:23:34;;;;;;;7.88;4.18;;;;;;;-4.84;50.44;99457.44;5032782;28;20044;-57
2023/11/21 08:26:02;;;;;;;10.32;3.80;;;;;;;-4.78;50.58;99467.78;5049678;28;20045;-58
2023/11/21 08:28:27;;;;;;;10.77;4.45;;;;;;;-4.93;50.52;99415.88;5053451;28;20454;-57
2023/11/21 08:30:54;;;;;;;10.70;5.35;;;;;;;-4.58;50.00;99452.50;5053117;28;20051;-58
2023/11/21 08:33:20;;;;;;;10.60;5.47;;;;;;;-4.39;50.49;99452.91;5050512;28;20056;-57
2023/11/21 08:35:45;;;;;;;8.63;4.65;;;;;;;-4.46;49.72;99407.78;5035534;28;20076;-60
2023/11/21 08:38:12;;;;;;;12.77;4.82;;;;;;;-4.11;48.98;99449.56;5033453;28;20034;-57
2023/11/21 08:40:38;;;;;;;9.73;4.28;;;;;;;-4.19;48.95;99448.03;5032247;28;20357;-57
2023/11/21 08:43:07;;;;;;;8.15;4.40;;;;;;;-4.19;48.68;99444.56;5045240;28;20387;-57
2023/11/21 08:45:34;;;;;;;6.95;4.22;;;;;;;-4.22;48.97;99440.25;5052921;28;20033;-59
2023/11/21 08:48:01;;;;;;;11.00;4.85;;;;;;;-4.18;48.93;99447.13;5052612;28;20029;-63
2023/11/21 08:50:28;;;;;;;12.30;4.50;;;;;;;-4.12;48.32;99424.31;5034319;28;20052;-61
2023/11/21 08:52:53;;;;;;;12.60;4.47;;;;;;;-3.93;48.83;99448.25;5052028;28;20037;-63
2023/11/21 08:55:19;;;;;;;11.90;5.65;;;;;;;-3.96;47.97;99446.56;5031486;28;20441;-60
2023/11/21 08:57:46;;;;;;;13.00;4.80;;;;;;;-3.96;48.44;99438.72;5049734;28;20109;-58
2023/11/21 09:00:16;;;;;;;11.18;5.20;;;;;;;-4.00;47.88;99434.47;5050463;28;20025;-58
2023/11/21 09:02:43;;;;;;;13.38;5.80;;;;;;;-4.24;48.20;99436.84;5044690;28;20029;-56
2023/11/21 09:05:10;;;;;;;8.77;4.25;;;;;;;-4.48;48.89;99433.94;5049912;28;20047;-56
2023/11/21 09:07:38;;;;;;;12.18;4.50;;;;;;;-4.77;48.32;99417.25;5039748;28;20025;-56
2023/11/21 09:10:07;;;;;;;9.20;4.03;;;;;;;-4.51;48.86;99464.50;5051029;28;20104;-62
2023/11/21 09:12:34;;;;;;;11.23;4.72;;;;;;;-4.49;48.75;99468.81;5050567;28;20104;-57
2023/11/21 09:15:04;;;;;;;9.90;4.60;;;;;;;-4.41;49.01;99467.75;5036756;28;20094;-56
2023/11/21 09:17:31;;;;;;;9.57;4.20;;;;;;;-4.42;48.45;99469.53;5035972;28;20056;-56
2023/11/21 09:19:57;;;;;;;11.00;4.60;;;;;;;-4.52;48.90;99455.84;5043078;28;20033;-57
2023/11/21 09:22:24;;;;;;;9.15;4.22;;;;;;;-4.44;48.88;99466.09;5033258;28;20021;-57
2023/11/21 09:24:51;;;;;;;11.27;3.78;;;;;;;-4.58;48.66;99462.97;5035322;28;20041;-57
2023/11/21 09:27:17;;;;;;;9.55;3.65;;;;;;;-4.49;48.67;99484.50;5038142;28;20083;-57
2023/11/21 09:29:43;;;;;;;15.40;4.20;;;;;;;-4.48;49.44;99481.00;5050408;28;20420;-56
2023/11/21 09:32:11;;;;;;;12.98;4.05;;;;;;;-4.48;50.06;99477.50;5035314;28;20368;-52
2023/11/21 09:34:39;;;;;;;8.07;4.05;;;;;;;-4.55;51.00;99468.97;5032087;28;20037;-54
2023/11/21 09:37:06;;;;;;;8.20;4.28;;;;;;;-4.59;50.96;99469.91;5045451;28;20053;-56
2023/11/21 09:39:36;;;;;;;12.68;5.40;;;;;;;-4.50;51.15;99476.69;5038139;28;20037;-57
2023/11/21 09:42:25;;;;;;;15.63;6.13;;;;;;;-4.50;50.23;99477.56;5039278;28;20044;-54
2023/11/21 09:45:04;;;;;;;13.23;7.22;;;;;;;-4.42;50.58;99480.00;5044791;28;20068;-54
2023/11/21 09:47:35;;;;;;;15.48;7.28;;;;;;;-4.39;50.01;99476.41;5046533;28;20131;-57
2023/11/21 09:50:02;;;;;;;15.93;6.40;;;;;;;-4.39;50.25;99473.81;5055147;28;20020;-56
2023/11/21 09:52:32;;;;;;;16.90;7.30;;;;;;;-4.41;50.31;99478.22;5046421;28;20041;-54
2023/11/21 09:55:00;;;;;;;15.57;7.00;;;;;;;-4.45;50.41;99490.53;5050963;28;20029;-53
2023/11/21 09:57:27;;;;;;;17.85;7.25;;;;;;;-4.44;50.60;99491.38;5036640;28;20036;-55
2023/11/21 10:00:00;;;;;;;10.55;4.53;;;;;;;-4.52;49.95;99483.69;5037389;28;20064;-59
2023/11/21 10:02:29;;;;;;;8.65;4.00;;;;;;;-4.60;49.54;99496.94;5035950;28;20033;-55
2023/11/21 10:04:56;;;;;;;7.90;4.45;;;;;;;-4.60;50.17;99491.72;5035606;28;20256;-56
2023/11/21 10:07:22;;;;;;;10.02;4.15;;;;;;;-4.60;50.13;99491.72;5043877;28;20037;-57
2023/11/21 10:09:51;;;;;;;11.05;5.60;;;;;;;-4.92;50.24;99444.59;5054502;28;20037;-53
2023/11/21 10:12:17;;;;;;;19.75;6.82;;;;;;;-4.79;50.16;99486.06;5027767;28;20026;-56
2023/11/21 10:14:48;;;;;;;17.70;6.43;;;;;;;-4.69;50.76;99498.03;5047014;28;20056;-58
2023/11/21 10:17:16;;;;;;;14.85;6.55;;;;;;;-4.64;51.50;99500.53;5045402;28;20032;-56
2023/11/21 10:19:42;;;;;;;12.30;5.72;;;;;;;-4.56;50.94;99496.00;5034766;28;20040;-56
2023/11/21 10:22:08;;;;;;;11.52;4.70;;;;;;;-4.47;50.72;99498.38;5037894;28;20065;-54
2023/11/21 10:24:35;;;;;;;13.32;5.72;;;;;;;-4.44;49.99;99499.19;5038091;28;20057;-57
2023/11/21 10:27:02;;;;;;;14.15;6.05;;;;;;;-4.40;49.93;99490.38;5040200;28;20155;-56
2023/11/21 10:29:33;;;;;;;11.95;4.68;;;;;;;-4.64;50.46;99454.38;5036230;28;20120;-55
2023/11/21 10:31:59;;;;;;;11.45;4.85;;;;;;;-4.36;49.96;99499.84;5035430;28;20029;-58
2023/11/21 10:34:27;;;;;;;11.52;4.20;;;;;;;-4.66;49.74;99442.25;5034929;28;20200;-56
2023/11/21 10:36:53;;;;;;;10.38;4.07;;;;;;;-4.33;49.42;99487.59;5041943;28;20033;-55
2023/11/21 10:39:20;;;;;;;9.45;4.10;;;;;;;-4.34;49.43;99488.47;5050419;28;20103;-54
2023/11/21 10:41:47;;;;;;;8.00;4.25;;;;;;;-4.33;49.13;99489.34;5055257;28;20090;-55
2023/11/21 10:44:20;;;;;;;7.38;3.95;;;;;;;-4.37;49.39;99496.41;5052990;28;20103;-57
2023/11/21 10:46:50;;;;;;;11.93;5.25;;;;;;;-4.48;49.21;99501.00;5054941;28;20025;-55
2023/11/21 10:49:19;;;;;;;11.95;5.30;;;;;;;-4.55;49.98;99499.47;5053502;28;20174;-56
2023/11/21 10:51:45;;;;;;;10.77;4.43;;;;;;;-4.60;49.76;99491.72;5054086;28;20029;-58
2023/11/21 10:54:12;;;;;;;15.63;5.10;;;;;;;-4.58;50.17;99497.78;5053724;28;20352;-58
2023/11/21 10:56:40;;;;;;;11.95;4.82;;;;;;;-4.77;50.23;99456.44;5053434;28;20072;-60
2023/11/21 10:59:14;;;;;;;14.57;5.45;;;;;;;-4.49;50.33;99497.56;5054538;28;20033;-54
2023/11/21 11:01:45;;;;;;;14.20;4.80;;;;;;;-4.62;50.08;99476.09;5054246;28;20033;-57
2023/11/21 11:04:16;;;;;;;12.13;4.47;;;;;;;-4.57;50.11;99489.06;5052691;28;20036;-58
2023/11/21 11:06:51;;;;;;;12.90;4.38;;;;;;;-4.54;49.79;99504.66;5053729;28;20052;-57
2023/11/21 11:09:17;;;;;;;13.82;4.30;;;;;;;-4.60;50.42;99496.94;5053916;28;20028;-58
2023/11/21 11:11:46;;;;;;;8.15;4.03;;;;;;;-4.73;50.46;99490.31;5054234;28;20041;-54
2023/11/21 11:14:13;;;;;;;7.88;4.18;;;;;;;-4.78;51.11;99493.88;5054410;28;20098;-55
2023/11/21 11:16:41;;;;;;;16.40;5.05;;;;;;;-4.81;51.37;99498.31;5048693;28;20434;-56
2023/11/21 11:19:07;;;;;;;12.23;4.75;;;;;;;-4.84;51.80;99499.22;5042250;28;20025;-57
2023/11/21 11:21:57;;;;;;;12.77;5.88;;;;;;;-4.81;52.13;99503.53;5058347;28;20064;-57
2023/11/21 11:25:00;;;;;;;10.40;5.22;;;;;;;-4.70;52.40;99500.69;5037259;28;20029;-54
2023/11/21 11:27:35;;;;;;;10.77;5.13;;;;;;;-4.59;52.41;99497.81;5034903;28;20045;-55
2023/11/21 11:30:38;;;;;;;11.20;5.50;;;;;;;-4.54;52.27;99509.88;5052406;28;20052;-55